Time;durP1;ratioP1;P1;durP2;ratioP2;P2;SDS_P1;SDS_P2;PMS_P1;PMS_P2;Temp;Humidity;BMP_temperature;BMP_pressure;BME280_temperature;BME280_humidity;BME280_pressure;Samples;Min_cycle;Max_cycle;Signal;HPM_P1;HPM_P2
2022/06/19 00:00:06;;;;;;;0.47;0.43;;;19.70;54.20;;;;;;5071561;28;20069;-72
2022/06/19 00:02:32;;;;;;;0.00;0.00;;;19.80;52.40;;;;;;5071069;28;20035;-73
2022/06/19 00:04:58;;;;;;;0.28;0.20;;;19.80;52.80;;;;;;5070469;28;20379;-73
2022/06/19 00:07:24;;;;;;;0.00;0.00;;;20.00;51.80;;;;;;5071836;28;20061;-73
2022/06/19 00:09:50;;;;;;;0.45;0.30;;;20.30;51.30;;;;;;5070911;28;20117;-73
2022/06/19 00:12:18;;;;;;;2.17;2.10;;;20.50;49.70;;;;;;5056039;28;20115;-73
2022/06/19 00:14:44;;;;;;;3.65;1.92;;;20.70;50.30;;;;;;5071321;28;20017;-73
2022/06/19 00:17:11;;;;;;;4.63;0.30;;;21.00;50.30;;;;;;5071106;28;20344;-73
2022/06/19 00:19:37;;;;;;;0.00;0.00;;;21.60;50.80;;;;;;5071901;28;20032;-73
2022/06/19 00:22:03;;;;;;;0.00;0.00;;;22.20;50.40;;;;;;5070902;28;20032;-71
2022/06/19 00:24:29;;;;;;;0.10;0.10;;;22.90;49.90;;;;;;5075391;28;20043;-73
2022/06/19 00:26:56;;;;;;;0.00;0.00;;;23.30;46.20;;;;;;5076250;28;20099;-72
2022/06/19 00:29:22;;;;;;;0.00;0.00;;;23.60;46.10;;;;;;5075132;28;20035;-73
2022/06/19 00:31:48;;;;;;;0.10;0.10;;;24.30;44.50;;;;;;5075349;28;20039;-73
2022/06/19 00:34:14;;;;;;;0.00;0.00;;;24.50;44.10;;;;;;5076199;28;20050;-73
2022/06/19 00:36:40;;;;;;;0.10;0.10;;;24.80;43.60;;;;;;5075276;28;20059;-73
2022/06/19 00:39:06;;;;;;;0.00;0.00;;;25.30;42.80;;;;;;5075022;28;20031;-73
2022/06/19 00:41:41;;;;;;;0.30;0.20;;;25.30;41.60;;;;;;5074430;28;20497;-71
2022/06/19 00:44:11;;;;;;;0.00;0.00;;;25.70;42.00;;;;;;5075506;28;20028;-72
2022/06/19 00:46:46;;;;;;;1.02;0.38;;;26.00;41.50;;;;;;5075242;28;20491;-72
2022/06/19 00:49:37;;;;;;;0.00;0.00;;;26.00;40.90;;;;;;5075506;28;20028;-72
2022/06/19 00:52:08;;;;;;;0.10;0.10;;;25.90;41.60;;;;;;5074514;28;20033;-72
2022/06/19 00:54:48;;;;;;;0.90;0.25;;;25.80;41.10;;;;;;5072998;28;20025;-72
2022/06/19 00:57:16;;;;;;;0.10;0.10;;;25.10;41.10;;;;;;5074821;28;20028;-72
2022/06/19 00:59:51;;;;;;;0.40;0.32;;;24.20;42.00;;;;;;5075283;28;20479;-72
2022/06/19 01:02:17;;;;;;;0.00;0.00;;;24.40;42.90;;;;;;5070945;28;20025;-72
2022/06/19 01:04:49;;;;;;;0.50;0.47;;;24.60;42.80;;;;;;5073684;28;20035;-72
2022/06/19 01:07:16;;;;;;;1.45;1.35;;;25.10;41.80;;;;;;5073763;28;20020;-72
2022/06/19 01:09:42;;;;;;;0.38;0.38;;;25.10;41.50;;;;;;5074606;28;20367;-72
2022/06/19 01:12:08;;;;;;;0.40;0.30;;;25.30;42.20;;;;;;5073478;28;20082;-72
2022/06/19 01:14:37;;;;;;;1.33;0.65;;;25.30;41.80;;;;;;5074519;28;20099;-72
2022/06/19 01:17:03;;;;;;;0.25;0.25;;;25.30;42.00;;;;;;5071726;28;20415;-72
2022/06/19 01:19:33;;;;;;;0.03;0.03;;;25.60;42.00;;;;;;5070457;28;20078;-72
2022/06/19 01:22:46;;;;;;;1.02;1.02;;;25.40;41.60;;;;;;5063520;28;20024;-72
2022/06/19 01:25:23;;;;;;;0.00;0.00;;;26.10;42.10;;;;;;5060844;28;20044;-72
2022/06/19 01:30:44;;;;;;;0.05;0.05;;;27.60;37.50;;;;;;5067215;28;21350;-72
2022/06/19 01:33:14;;;;;;;0.20;0.20;;;27.00;39.00;;;;;;5068047;28;20024;-73
2022/06/19 01:35:43;;;;;;;0.00;0.00;;;26.80;39.70;;;;;;5071311;28;20020;-72
2022/06/19 01:38:13;;;;;;;0.32;0.30;;;27.10;40.00;;;;;;5068164;28;20273;-72
2022/06/19 01:40:42;;;;;;;0.35;0.10;;;26.80;38.40;;;;;;5063078;28;20125;-72
2022/06/19 01:43:09;;;;;;;0.30;0.30;;;26.00;39.00;;;;;;5064047;28;20025;-71
2022/06/19 01:45:39;;;;;;;0.17;0.10;;;25.30;39.60;;;;;;5068332;28;20106;-72
2022/06/19 01:48:06;;;;;;;3.05;1.38;;;25.10;41.10;;;;;;5054029;28;20033;-73
2022/06/19 01:50:32;;;;;;;0.57;0.57;;;25.00;40.40;;;;;;5072872;28;20021;-72
2022/06/19 01:53:13;;;;;;;0.10;0.10;;;24.60;41.20;;;;;;5066039;28;20428;-72
2022/06/19 01:55:40;;;;;;;0.00;0.00;;;25.00;41.30;;;;;;5070914;28;20020;-72
2022/06/19 01:58:07;;;;;;;2.28;1.33;;;25.50;41.50;;;;;;5074198;28;20017;-73
2022/06/19 02:00:35;;;;;;;1.05;0.47;;;25.90;38.90;;;;;;5073408;28;20094;-73
2022/06/19 02:03:07;;;;;;;0.98;0.63;;;24.80;40.50;;;;;;5065755;28;20375;-73
2022/06/19 02:05:36;;;;;;;0.57;0.47;;;24.50;41.20;;;;;;5065945;28;20086;-73
2022/06/19 02:08:02;;;;;;;1.25;0.80;;;24.30;42.40;;;;;;5070298;28;20054;-73
2022/06/19 02:10:29;;;;;;;0.20;0.00;;;24.50;42.70;;;;;;5067424;28;20029;-73
2022/06/19 02:12:56;;;;;;;0.47;0.20;;;25.30;42.60;;;;;;5062329;28;20040;-73
2022/06/19 02:15:22;;;;;;;0.32;0.20;;;25.90;42.00;;;;;;5070660;28;20066;-72
2022/06/19 02:17:52;;;;;;;1.98;1.85;;;26.20;41.40;;;;;;5066450;28;20020;-73
2022/06/19 02:20:19;;;;;;;0.68;0.38;;;25.90;41.30;;;;;;5065633;28;20560;-73
2022/06/19 02:22:46;;;;;;;0.85;0.32;;;25.10;42.10;;;;;;5071204;28;20071;-73
2022/06/19 02:25:12;;;;;;;10.07;0.63;;;24.80;43.20;;;;;;5064316;28;20047;-73
2022/06/19 02:27:39;;;;;;;0.00;0.00;;;25.30;43.60;;;;;;5066489;28;20086;-73
2022/06/19 02:30:09;;;;;;;0.00;0.00;;;26.50;42.60;;;;;;5059174;28;20033;-73
2022/06/19 02:32:48;;;;;;;3.10;2.90;;;27.60;41.20;;;;;;5060142;28;20351;-73
2022/06/19 02:35:21;;;;;;;0.65;0.57;;;28.10;40.00;;;;;;5071471;28;20116;-73
2022/06/19 02:37:50;;;;;;;1.45;0.28;;;27.80;40.40;;;;;;5064522;28;20049;-73
2022/06/19 02:40:36;;;;;;;0.05;0.05;;;27.60;40.50;;;;;;5068645;28;20074;-73
2022/06/19 02:43:02;;;;;;;0.00;0.00;;;27.30;40.90;;;;;;5071071;28;20047;-72
2022/06/19 02:45:33;;;;;;;0.05;0.05;;;27.30;41.60;;;;;;5068079;28;20029;-73
2022/06/19 02:48:00;;;;;;;0.65;0.45;;;28.40;40.90;;;;;;5070038;28;20386;-73
2022/06/19 02:50:30;;;;;;;0.35;0.20;;;28.20;40.80;;;;;;5071004;28;20020;-73
2022/06/19 02:52:57;;;;;;;1.10;0.45;;;27.40;40.20;;;;;;5065313;28;20032;-72
2022/06/19 02:55:23;;;;;;;4.38;1.27;;;26.90;40.70;;;;;;5067300;28;20025;-72
2022/06/19 02:57:50;;;;;;;1.45;0.40;;;26.50;41.10;;;;;;5068544;28;20029;-72
2022/06/19 03:00:21;;;;;;;0.28;0.20;;;26.30;42.40;;;;;;5067712;28;20067;-72
2022/06/19 03:02:54;;;;;;;0.10;0.10;;;26.70;42.40;;;;;;5070756;28;20060;-72
2022/06/19 03:05:24;;;;;;;0.10;0.03;;;27.80;41.60;;;;;;5070924;28;20114;-72
2022/06/19 03:07:50;;;;;;;3.53;0.90;;;28.90;40.10;;;;;;5069597;28;20056;-72
2022/06/19 03:10:17;;;;;;;3.03;0.50;;;29.70;39.10;;;;;;5071224;28;20085;-73
2022/06/19 03:12:44;;;;;;;0.28;0.20;;;28.00;40.20;;;;;;5070563;28;20506;-72
2022/06/19 03:15:11;;;;;;;0.60;0.57;;;27.50;42.10;;;;;;5069445;28;20048;-73
2022/06/19 03:17:38;;;;;;;0.65;0.40;;;27.70;41.70;;;;;;5069479;28;20108;-73
2022/06/19 03:20:05;;;;;;;0.20;0.10;;;27.10;42.40;;;;;;5070760;28;20021;-73
2022/06/19 03:22:31;;;;;;;2.47;0.30;;;27.40;43.10;;;;;;5072503;28;20028;-73
2022/06/19 03:24:57;;;;;;;0.30;0.30;;;27.70;42.60;;;;;;5072284;28;20028;-73
2022/06/19 03:27:23;;;;;;;0.35;0.20;;;27.60;41.70;;;;;;5069891;28;20103;-72
2022/06/19 03:29:49;;;;;;;3.90;1.00;;;27.60;42.20;;;;;;5071130;28;20078;-73
2022/06/19 03:32:16;;;;;;;1.08;0.40;;;27.50;41.00;;;;;;5069598;28;20036;-73
2022/06/19 03:34:42;;;;;;;0.20;0.10;;;27.60;41.20;;;;;;5067562;28;20104;-72
2022/06/19 03:37:09;;;;;;;0.90;0.65;;;28.10;41.90;;;;;;5068887;28;20079;-72
2022/06/19 03:39:35;;;;;;;0.20;0.17;;;28.50;39.60;;;;;;5070063;28;20471;-71
2022/06/19 03:42:02;;;;;;;0.32;0.17;;;28.00;38.30;;;;;;5070380;28;20105;-72
2022/06/19 03:44:28;;;;;;;1.13;0.88;;;28.30;39.00;;;;;;5070245;28;20027;-71
2022/06/19 03:46:54;;;;;;;0.65;0.43;;;28.20;38.30;;;;;;5069884;28;20020;-72
2022/06/19 03:49:20;;;;;;;0.10;0.10;;;27.90;39.80;;;;;;5070367;28;20499;-72
2022/06/19 03:51:46;;;;;;;0.47;0.35;;;27.70;40.80;;;;;;5070246;28;20111;-72
2022/06/19 03:54:12;;;;;;;0.38;0.20;;;28.20;40.60;;;;;;5072007;28;20016;-72
2022/06/19 03:56:38;;;;;;;0.10;0.10;;;29.00;39.30;;;;;;5071227;28;20024;-72
2022/06/19 03:59:07;;;;;;;0.32;0.22;;;29.40;36.50;;;;;;5070540;28;20032;-73
2022/06/19 04:01:36;;;;;;;0.68;0.20;;;29.30;35.30;;;;;;5070096;28;20028;-73
2022/06/19 04:04:04;;;;;;;0.20;0.10;;;28.60;35.40;;;;;;5068939;28;20033;-73
2022/06/19 04:06:34;;;;;;;2.35;1.10;;;28.30;36.30;;;;;;5068819;28;20109;-72
2022/06/19 04:09:01;;;;;;;1.73;0.38;;;28.00;36.70;;;;;;5068537;28;20036;-72
2022/06/19 04:11:29;;;;;;;0.00;0.00;;;28.00;37.80;;;;;;5069607;28;20020;-74
2022/06/19 04:13:56;;;;;;;5.38;5.18;;;27.80;38.10;;;;;;5067650;28;20023;-72
2022/06/19 04:16:25;;;;;;;0.00;0.00;;;27.60;38.10;;;;;;5069828;28;20522;-73
2022/06/19 04:18:53;;;;;;;0.13;0.13;;;28.10;38.60;;;;;;5068139;28;20025;-73
2022/06/19 04:21:22;;;;;;;0.00;0.00;;;28.50;38.50;;;;;;5068080;28;21904;-73
2022/06/19 04:23:54;;;;;;;0.38;0.32;;;28.80;38.40;;;;;;5067384;28;20041;-72
2022/06/19 04:26:21;;;;;;;0.28;0.25;;;29.20;36.10;;;;;;5068317;28;20035;-73
2022/06/19 04:28:47;;;;;;;0.00;0.00;;;29.00;36.60;;;;;;5069898;28;20066;-73
2022/06/19 04:31:13;;;;;;;0.00;0.00;;;29.00;37.00;;;;;;5068395;28;20025;-73
2022/06/19 04:33:39;;;;;;;0.00;0.00;;;29.10;35.80;;;;;;5049010;28;20125;-73
2022/06/19 04:36:10;;;;;;;2.20;1.65;;;29.00;36.60;;;;;;5069446;28;20370;-73
2022/06/19 04:38:38;;;;;;;2.28;0.73;;;29.00;34.20;;;;;;5067481;28;20020;-72
2022/06/19 04:41:04;;;;;;;0.40;0.20;;;28.80;34.40;;;;;;5069696;28;20090;-72
2022/06/19 04:43:30;;;;;;;5.07;1.88;;;28.70;34.30;;;;;;5067656;28;20437;-72
2022/06/19 04:46:03;;;;;;;0.68;0.68;;;28.60;35.00;;;;;;5068317;28;20099;-72
2022/06/19 04:48:30;;;;;;;1.50;0.82;;;28.60;32.70;;;;;;5067833;28;20114;-73
2022/06/19 04:50:56;;;;;;;0.45;0.20;;;28.80;34.00;;;;;;5065402;28;20025;-72
2022/06/19 04:53:22;;;;;;;0.13;0.05;;;28.60;31.10;;;;;;5068174;28;20030;-72
2022/06/19 04:55:48;;;;;;;0.00;0.00;;;28.80;31.00;;;;;;5068366;28;20025;-73
2022/06/19 04:58:14;;;;;;;0.10;0.10;;;28.80;31.70;;;;;;5066022;28;20082;-72
2022/06/19 05:00:41;;;;;;;1.52;0.50;;;28.90;31.20;;;;;;5070263;28;20434;-72
2022/06/19 05:03:07;;;;;;;1.08;0.20;;;29.10;29.80;;;;;;5066247;28;20379;-72
2022/06/19 05:05:33;;;;;;;0.00;0.00;;;28.90;29.80;;;;;;5069567;28;20082;-72
2022/06/19 05:07:59;;;;;;;2.70;1.10;;;29.00;30.00;;;;;;5067314;28;20112;-72
2022/06/19 05:10:26;;;;;;;0.65;0.38;;;29.20;30.30;;;;;;5073164;28;20024;-72
2022/06/19 05:12:56;;;;;;;3.40;0.68;;;29.20;28.60;;;;;;5070088;28;20032;-73
2022/06/19 05:15:22;;;;;;;2.10;0.20;;;29.10;28.80;;;;;;5073287;28;20038;-74
2022/06/19 05:17:49;;;;;;;0.38;0.38;;;28.90;27.90;;;;;;5069821;28;20024;-73
2022/06/19 05:20:15;;;;;;;0.20;0.20;;;28.90;29.40;;;;;;5070964;28;20021;-72
2022/06/19 05:22:41;;;;;;;0.40;0.30;;;29.10;28.90;;;;;;5070997;28;20471;-73
2022/06/19 05:25:11;;;;;;;0.13;0.13;;;28.90;27.90;;;;;;5071843;28;20082;-72
2022/06/19 05:27:38;;;;;;;0.60;0.45;;;28.90;28.70;;;;;;5068314;28;20021;-73
2022/06/19 05:30:06;;;;;;;2.28;2.17;;;29.10;30.90;;;;;;5070362;28;20479;-73
2022/06/19 05:32:32;;;;;;;0.00;0.00;;;29.20;31.40;;;;;;5069008;28;20024;-73
2022/06/19 05:34:58;;;;;;;0.10;0.10;;;29.10;29.60;;;;;;5072326;28;20027;-73
2022/06/19 05:37:28;;;;;;;2.33;1.35;;;29.10;29.40;;;;;;5073611;28;20063;-73
2022/06/19 05:39:54;;;;;;;0.05;0.05;;;29.10;29.70;;;;;;5078296;28;20491;-73
2022/06/19 05:42:20;;;;;;;6.25;1.55;;;29.10;29.50;;;;;;5083406;28;20103;-73
2022/06/19 05:44:46;;;;;;;0.00;0.00;;;29.20;29.20;;;;;;5073142;28;20482;-73
2022/06/19 05:47:12;;;;;;;0.43;0.43;;;29.00;29.40;;;;;;5067398;28;20033;-72
2022/06/19 05:49:38;;;;;;;0.30;0.22;;;29.30;29.70;;;;;;5078735;28;20016;-72
2022/06/19 05:52:20;;;;;;;0.82;0.77;;;29.30;28.50;;;;;;5078182;28;20386;-72
2022/06/19 05:54:47;;;;;;;0.00;0.00;;;29.00;29.00;;;;;;5057775;28;20107;-72
2022/06/19 05:57:13;;;;;;;0.00;0.00;;;29.20;29.90;;;;;;5078167;28;20454;-72
2022/06/19 05:59:39;;;;;;;0.00;0.00;;;29.40;29.50;;;;;;5075099;28;20496;-72
2022/06/19 06:02:06;;;;;;;0.47;0.20;;;29.50;29.40;;;;;;5069220;28;20494;-72
2022/06/19 06:04:32;;;;;;;1.13;0.40;;;29.50;30.40;;;;;;5073929;28;20379;-72
2022/06/19 06:06:58;;;;;;;0.00;0.00;;;29.20;29.80;;;;;;5069394;28;20093;-72
2022/06/19 06:09:25;;;;;;;1.95;1.85;;;29.10;30.00;;;;;;5071277;28;20034;-72
2022/06/19 06:11:51;;;;;;;0.00;0.00;;;29.20;29.90;;;;;;5067062;28;20462;-72
2022/06/19 06:14:17;;;;;;;0.00;0.00;;;29.30;28.90;;;;;;5071516;28;20532;-72
2022/06/19 06:16:43;;;;;;;1.48;0.30;;;29.40;29.50;;;;;;5053712;28;20295;-72
2022/06/19 06:19:09;;;;;;;0.73;0.73;;;29.80;29.20;;;;;;5051964;28;20017;-72
2022/06/19 06:21:35;;;;;;;0.40;0.40;;;29.80;28.30;;;;;;5068142;28;20024;-72
2022/06/19 06:24:01;;;;;;;0.10;0.10;;;29.60;28.00;;;;;;5071123;28;20024;-72
2022/06/19 06:26:29;;;;;;;0.40;0.20;;;29.60;28.20;;;;;;5082563;28;20415;-72
2022/06/19 06:28:58;;;;;;;0.60;0.20;;;29.80;28.30;;;;;;5073743;28;20032;-72
2022/06/19 06:31:25;;;;;;;0.00;0.00;;;29.90;28.40;;;;;;5070458;28;20021;-72
2022/06/19 06:34:01;;;;;;;4.50;0.85;;;29.70;29.30;;;;;;5073794;28;20066;-73
2022/06/19 06:36:28;;;;;;;1.65;0.57;;;29.90;27.90;;;;;;5069420;28;20060;-73
2022/06/19 06:38:54;;;;;;;1.55;0.30;;;30.00;28.00;;;;;;5068196;28;20097;-74
2022/06/19 06:41:21;;;;;;;0.73;0.45;;;29.90;28.10;;;;;;5068340;28;20061;-73
2022/06/19 06:43:47;;;;;;;0.52;0.43;;;30.00;28.10;;;;;;5067705;28;20028;-71
2022/06/19 06:46:20;;;;;;;0.00;0.00;;;30.10;27.50;;;;;;5070575;28;20021;-74
2022/06/19 06:48:46;;;;;;;0.10;0.10;;;30.20;27.70;;;;;;5069149;28;20029;-74
2022/06/19 06:51:16;;;;;;;0.00;0.00;;;30.00;28.00;;;;;;5068149;28;20371;-73
2022/06/19 06:53:43;;;;;;;0.05;0.05;;;30.10;27.30;;;;;;5065744;28;20021;-74
2022/06/19 06:56:09;;;;;;;0.08;0.08;;;29.70;27.70;;;;;;5070267;28;20028;-73
2022/06/19 06:58:37;;;;;;;0.00;0.00;;;29.40;27.50;;;;;;5069501;28;20021;-73
2022/06/19 07:01:13;;;;;;;0.00;0.00;;;29.70;27.20;;;;;;5070275;28;20471;-73
2022/06/19 07:03:39;;;;;;;1.05;0.20;;;30.10;26.60;;;;;;5066204;28;20058;-74
2022/06/19 07:06:06;;;;;;;0.30;0.22;;;30.30;27.00;;;;;;5064857;28;20028;-73
2022/06/19 07:08:32;;;;;;;0.00;0.00;;;30.30;26.90;;;;;;5067980;28;20476;-74
2022/06/19 07:10:58;;;;;;;0.17;0.17;;;29.90;27.40;;;;;;5071017;28;20162;-73
2022/06/19 07:13:24;;;;;;;0.00;0.00;;;29.90;27.20;;;;;;5071329;28;20129;-74
2022/06/19 07:15:51;;;;;;;0.00;0.00;;;29.80;27.40;;;;;;5071333;28;20082;-73
2022/06/19 07:18:19;;;;;;;0.03;0.03;;;29.90;27.20;;;;;;5069638;28;20021;-71
2022/06/19 07:20:45;;;;;;;0.45;0.10;;;29.90;27.00;;;;;;5068966;28;20020;-73
2022/06/19 07:23:11;;;;;;;1.20;0.90;;;30.30;27.70;;;;;;5066005;28;20025;-73
2022/06/19 07:25:38;;;;;;;0.10;0.10;;;30.00;27.60;;;;;;5065498;28;20530;-73
2022/06/19 07:28:04;;;;;;;0.00;0.00;;;29.90;26.90;;;;;;5070526;28;20382;-74
2022/06/19 07:30:30;;;;;;;0.00;0.00;;;29.90;27.90;;;;;;5068183;28;20032;-73
2022/06/19 07:32:57;;;;;;;0.00;0.00;;;30.00;27.70;;;;;;5068664;28;20052;-73
2022/06/19 07:35:24;;;;;;;0.00;0.00;;;30.20;26.60;;;;;;5066409;28;20360;-74
2022/06/19 07:37:53;;;;;;;0.20;0.20;;;30.10;26.40;;;;;;5065403;28;20052;-73
2022/06/19 07:40:21;;;;;;;0.00;0.00;;;30.00;26.60;;;;;;5066717;28;20028;-72
2022/06/19 07:42:47;;;;;;;0.10;0.10;;;30.10;27.30;;;;;;5068395;28;20111;-73
2022/06/19 07:45:13;;;;;;;0.00;0.00;;;30.40;26.50;;;;;;5066648;28;20484;-73
2022/06/19 07:50:26;;;;;;;0.00;0.00;;;30.90;26.10;;;;;;5067740;28;20055;-73
2022/06/19 07:52:53;;;;;;;0.70;0.70;;;30.60;25.40;;;;;;5064627;28;20051;-73
2022/06/19 07:55:25;;;;;;;0.50;0.30;;;30.30;24.50;;;;;;5064134;28;20041;-73
2022/06/19 07:57:52;;;;;;;0.00;0.00;;;30.50;25.00;;;;;;5068428;28;20027;-73
2022/06/19 08:00:24;;;;;;;0.10;0.10;;;30.70;24.70;;;;;;5060476;28;20418;-73
2022/06/19 08:02:52;;;;;;;0.70;0.40;;;30.70;24.60;;;;;;5064325;28;20027;-73
2022/06/19 08:05:20;;;;;;;1.20;0.45;;;30.70;24.40;;;;;;5064075;28;20031;-73
2022/06/19 08:07:46;;;;;;;0.82;0.50;;;30.90;24.70;;;;;;5064686;28;20040;-73
2022/06/19 08:10:23;;;;;;;0.00;0.00;;;30.70;24.30;;;;;;5068880;28;20025;-73
2022/06/19 08:12:50;;;;;;;3.83;1.20;;;30.30;24.20;;;;;;5065353;28;20529;-73
2022/06/19 08:15:17;;;;;;;0.00;0.00;;;30.50;24.90;;;;;;5066299;28;20153;-72
2022/06/19 08:17:44;;;;;;;0.00;0.00;;;30.40;24.40;;;;;;5060101;28;20467;-72
2022/06/19 08:20:11;;;;;;;0.47;0.28;;;30.70;25.50;;;;;;5069798;28;20475;-72
2022/06/19 08:22:39;;;;;;;0.00;0.00;;;30.90;24.70;;;;;;5067137;28;20028;-73
2022/06/19 08:25:07;;;;;;;0.00;0.00;;;30.70;24.50;;;;;;5067941;28;20104;-72
2022/06/19 08:27:36;;;;;;;3.15;0.75;;;30.80;25.40;;;;;;5067523;28;20027;-73
2022/06/19 08:30:05;;;;;;;1.65;0.38;;;30.70;25.00;;;;;;5066864;28;20074;-73
2022/06/19 08:32:31;;;;;;;0.10;0.10;;;30.90;24.30;;;;;;5064691;28;20029;-73
2022/06/19 08:34:57;;;;;;;0.00;0.00;;;31.20;24.50;;;;;;5063619;28;20040;-74
2022/06/19 08:37:23;;;;;;;0.30;0.30;;;31.20;25.10;;;;;;5067003;28;20129;-73
2022/06/19 08:39:49;;;;;;;0.00;0.00;;;31.40;24.40;;;;;;5069379;28;20544;-73
2022/06/19 08:42:36;;;;;;;0.10;0.10;;;31.80;24.50;;;;;;5068997;28;20028;-73
2022/06/19 08:45:10;;;;;;;0.00;0.00;;;32.00;24.90;;;;;;5065600;28;20028;-72
2022/06/19 08:48:04;;;;;;;0.00;0.00;;;32.00;24.50;;;;;;5067603;28;20038;-72
2022/06/19 08:50:35;;;;;;;0.47;0.47;;;31.60;25.40;;;;;;5066768;28;20039;-73
2022/06/19 08:53:09;;;;;;;0.00;0.00;;;31.90;24.60;;;;;;5071878;28;20053;-73
2022/06/19 08:56:01;;;;;;;0.08;0.08;;;31.80;26.00;;;;;;5068737;28;20102;-73
2022/06/19 08:58:45;;;;;;;0.13;0.10;;;31.70;25.40;;;;;;5070291;28;20049;-73
2022/06/19 09:01:40;;;;;;;0.30;0.13;;;31.30;25.60;;;;;;5061167;28;20029;-73
2022/06/19 09:07:25;;;;;;;0.38;0.38;;;31.60;25.50;;;;;;5067695;28;20075;-73
2022/06/19 09:10:05;;;;;;;0.25;0.25;;;31.70;26.20;;;;;;5066875;28;20048;-73
2022/06/19 09:12:43;;;;;;;0.00;0.00;;;31.70;25.60;;;;;;5069941;28;20463;-73
2022/06/19 09:15:12;;;;;;;0.00;0.00;;;31.90;25.50;;;;;;5066984;28;20550;-73
2022/06/19 09:17:41;;;;;;;0.10;0.10;;;32.30;25.20;;;;;;5070182;28;20017;-73
2022/06/19 09:20:08;;;;;;;0.32;0.32;;;32.30;25.70;;;;;;5068281;28;20037;-73
2022/06/19 09:22:43;;;;;;;0.47;0.47;;;32.30;25.60;;;;;;5067593;28;20100;-73
2022/06/19 09:25:44;;;;;;;0.00;0.00;;;32.50;24.60;;;;;;5070050;28;20107;-73
2022/06/19 09:28:25;;;;;;;0.00;0.00;;;32.30;24.70;;;;;;5063281;28;20394;-74
2022/06/19 09:31:10;;;;;;;1.08;0.57;;;32.20;26.10;;;;;;5069825;28;20028;-72
2022/06/19 09:33:36;;;;;;;3.60;3.28;;;32.10;25.70;;;;;;5069000;28;20021;-72
2022/06/19 09:36:09;;;;;;;0.00;0.00;;;32.10;25.30;;;;;;5067329;28;20138;-73
2022/06/19 09:39:27;;;;;;;0.00;0.00;;;31.90;25.20;;;;;;5067206;28;20024;-73
2022/06/19 09:42:23;;;;;;;0.63;0.63;;;32.10;24.50;;;;;;5034880;28;20032;-74
2022/06/19 09:45:04;;;;;;;0.00;0.00;;;31.80;24.50;;;;;;5064935;28;20044;-73
2022/06/19 09:48:09;;;;;;;0.47;0.47;;;31.70;24.80;;;;;;5067761;28;20017;-73
2022/06/19 09:51:25;;;;;;;0.80;0.80;;;31.80;25.30;;;;;;5069004;28;20371;-73
2022/06/19 09:54:05;;;;;;;0.00;0.00;;;32.20;25.00;;;;;;5002311;28;20064;-73
2022/06/19 09:56:34;;;;;;;0.08;0.08;;;32.30;24.80;;;;;;5070085;28;20037;-73
2022/06/19 09:59:21;;;;;;;0.55;0.55;;;32.40;24.70;;;;;;5068742;28;20059;-73
2022/06/19 10:01:56;;;;;;;0.10;0.10;;;31.90;25.10;;;;;;5068502;28;20585;-74
2022/06/19 10:04:37;;;;;;;0.00;0.00;;;31.90;25.30;;;;;;5075688;28;20297;-73
2022/06/19 10:07:09;;;;;;;0.00;0.00;;;31.90;25.30;;;;;;5068441;28;20110;-74
2022/06/19 10:10:04;;;;;;;0.00;0.00;;;32.00;24.90;;;;;;5069569;28;20023;-73
2022/06/19 10:12:38;;;;;;;0.00;0.00;;;32.10;25.20;;;;;;5070895;28;20067;-73
2022/06/19 10:15:12;;;;;;;0.00;0.00;;;32.00;24.70;;;;;;5066610;28;20016;-73
2022/06/19 10:18:00;;;;;;;0.00;0.00;;;31.90;25.10;;;;;;5063909;28;20032;-73
2022/06/19 10:21:08;;;;;;;8.27;1.90;;;31.80;25.30;;;;;;5067730;28;20587;-73
2022/06/19 10:23:49;;;;;;;0.00;0.00;;;31.80;25.60;;;;;;5064150;28;20025;-74
2022/06/19 10:26:37;;;;;;;0.20;0.20;;;32.00;25.60;;;;;;5068669;28;20566;-73
2022/06/19 10:29:20;;;;;;;0.10;0.10;;;31.90;25.10;;;;;;5054177;28;20029;-72
2022/06/19 10:32:21;;;;;;;0.00;0.00;;;32.00;25.40;;;;;;5069711;28;20040;-72
2022/06/19 10:35:15;;;;;;;0.30;0.30;;;32.10;25.10;;;;;;5067547;28;20031;-72
2022/06/19 10:37:46;;;;;;;0.00;0.00;;;32.00;24.70;;;;;;5067725;28;20051;-73
2022/06/19 10:40:39;;;;;;;0.00;0.00;;;32.00;24.70;;;;;;5068265;28;20126;-73
2022/06/19 10:43:20;;;;;;;0.17;0.10;;;32.00;24.10;;;;;;5068360;28;20486;-72
2022/06/19 10:45:52;;;;;;;0.00;0.00;;;32.00;24.10;;;;;;5068676;28;20043;-73
2022/06/19 10:48:26;;;;;;;0.00;0.00;;;31.70;25.40;;;;;;5065809;28;20025;-73
2022/06/19 10:51:09;;;;;;;0.00;0.00;;;31.70;24.90;;;;;;5068028;28;20036;-72
2022/06/19 10:53:41;;;;;;;0.82;0.28;;;31.90;25.20;;;;;;5062139;28;20054;-74
2022/06/19 10:56:45;;;;;;;0.10;0.10;;;31.80;25.30;;;;;;5068875;28;20047;-73
2022/06/19 10:59:13;;;;;;;0.70;0.70;;;31.60;25.60;;;;;;5064834;28;20043;-73
2022/06/19 11:05:03;;;;;;;0.00;0.00;;;31.20;26.20;;;;;;5071358;28;20405;-72
2022/06/19 11:07:30;;;;;;;0.00;0.00;;;31.30;26.80;;;;;;5069145;28;20024;-73
2022/06/19 11:10:01;;;;;;;0.00;0.00;;;31.30;26.00;;;;;;5069268;28;20026;-73
2022/06/19 11:12:38;;;;;;;0.00;0.00;;;31.20;26.40;;;;;;5072087;28;20518;-72
2022/06/19 11:15:16;;;;;;;0.00;0.00;;;31.30;26.20;;;;;;5069871;28;20035;-72
2022/06/19 11:17:43;;;;;;;0.00;0.00;;;31.20;25.90;;;;;;5053808;28;20033;-73
2022/06/19 11:20:28;;;;;;;0.00;0.00;;;31.30;25.90;;;;;;5068430;28;20021;-73
2022/06/19 11:23:18;;;;;;;0.00;0.00;;;31.40;26.00;;;;;;5063196;28;20028;-73
2022/06/19 11:25:56;;;;;;;0.00;0.00;;;31.40;25.40;;;;;;5069075;28;20025;-74
2022/06/19 11:28:39;;;;;;;0.00;0.00;;;31.40;25.70;;;;;;5068738;28;20028;-73
2022/06/19 11:31:15;;;;;;;1.02;1.02;;;31.30;25.50;;;;;;5067132;28;20039;-73
2022/06/19 11:33:42;;;;;;;0.00;0.00;;;31.10;26.30;;;;;;5051460;28;20034;-73
2022/06/19 11:36:24;;;;;;;0.00;0.00;;;30.80;25.90;;;;;;5065969;28;20041;-74
2022/06/19 11:38:54;;;;;;;0.17;0.17;;;30.80;26.50;;;;;;5063774;28;20024;-73
2022/06/19 11:41:35;;;;;;;0.00;0.00;;;30.90;26.40;;;;;;5066933;28;20058;-74
2022/06/19 11:44:15;;;;;;;0.00;0.00;;;30.80;25.70;;;;;;5068563;28;20017;-73
2022/06/19 11:46:55;;;;;;;0.00;0.00;;;30.60;25.90;;;;;;5070208;28;20044;-72
2022/06/19 11:49:26;;;;;;;0.00;0.00;;;30.60;26.00;;;;;;5065450;28;20561;-72
2022/06/19 11:51:55;;;;;;;0.22;0.20;;;30.60;25.70;;;;;;5069197;28;20404;-72
2022/06/19 11:54:27;;;;;;;0.00;0.00;;;30.50;25.90;;;;;;5059889;28;20028;-74
2022/06/19 11:56:54;;;;;;;0.00;0.00;;;30.60;25.90;;;;;;5067215;28;20021;-73
2022/06/19 11:59:47;;;;;;;0.08;0.08;;;30.50;26.00;;;;;;5061611;28;20016;-72
2022/06/19 12:02:36;;;;;;;2.58;2.47;;;30.50;26.30;;;;;;5064959;28;20496;-73
2022/06/19 12:05:18;;;;;;;0.00;0.00;;;30.50;26.50;;;;;;5055585;28;20113;-73
2022/06/19 12:07:45;;;;;;;0.00;0.00;;;30.50;26.50;;;;;;5068887;28;20035;-73
2022/06/19 12:10:14;;;;;;;0.00;0.00;;;30.40;25.70;;;;;;5063808;28;20387;-73
2022/06/19 12:12:51;;;;;;;0.00;0.00;;;30.30;26.60;;;;;;5070283;28;20056;-73
2022/06/19 12:15:27;;;;;;;0.00;0.00;;;30.40;26.30;;;;;;5067746;28;20028;-73
2022/06/19 12:17:59;;;;;;;0.00;0.00;;;30.30;26.50;;;;;;5067339;28;20315;-74
2022/06/19 12:20:31;;;;;;;0.00;0.00;;;30.40;25.80;;;;;;5068915;28;20020;-73
2022/06/19 12:23:21;;;;;;;0.08;0.08;;;30.50;25.60;;;;;;5073454;28;20310;-73
2022/06/19 12:25:58;;;;;;;0.00;0.00;;;30.70;25.70;;;;;;5074852;28;20082;-73
2022/06/19 12:28:52;;;;;;;0.00;0.00;;;30.70;25.80;;;;;;5073964;28;20126;-73
2022/06/19 12:31:36;;;;;;;0.00;0.00;;;30.60;26.30;;;;;;5074088;28;20027;-73
2022/06/19 12:34:35;;;;;;;1.80;1.35;;;30.40;25.80;;;;;;5046915;28;20029;-73
2022/06/19 12:37:01;;;;;;;0.00;0.00;;;30.30;25.50;;;;;;5074129;28;20047;-73
2022/06/19 12:39:30;;;;;;;0.00;0.00;;;30.10;25.90;;;;;;5054323;28;20098;-73
2022/06/19 12:42:30;;;;;;;0.00;0.00;;;30.20;25.90;;;;;;5048834;28;20025;-73
2022/06/19 12:45:11;;;;;;;0.00;0.00;;;30.30;25.60;;;;;;5043961;28;20037;-73
2022/06/19 12:47:52;;;;;;;0.08;0.08;;;30.40;25.70;;;;;;5049405;28;20039;-73
2022/06/19 12:50:20;;;;;;;0.00;0.00;;;30.40;25.70;;;;;;5042054;28;20530;-73
2022/06/19 12:53:33;;;;;;;0.00;0.00;;;30.40;26.20;;;;;;5045071;28;20037;-73
2022/06/19 12:56:09;;;;;;;0.00;0.00;;;30.40;26.40;;;;;;5043189;28;20017;-73
2022/06/19 12:58:35;;;;;;;0.00;0.00;;;30.30;26.40;;;;;;5048914;28;20032;-73
2022/06/19 13:01:22;;;;;;;0.00;0.00;;;30.20;27.50;;;;;;5042175;28;20029;-73
2022/06/19 13:04:01;;;;;;;0.00;0.00;;;30.10;27.30;;;;;;5048097;28;20029;-73
2022/06/19 13:06:47;;;;;;;0.00;0.00;;;29.90;27.60;;;;;;5053115;28;20020;-73
2022/06/19 13:09:48;;;;;;;0.00;0.00;;;29.70;27.20;;;;;;5048658;28;20021;-73
2022/06/19 13:12:24;;;;;;;0.00;0.00;;;29.80;27.50;;;;;;5012287;28;20124;-73
2022/06/19 13:15:16;;;;;;;0.00;0.00;;;29.80;27.30;;;;;;5038503;28;20464;-73
2022/06/19 13:17:51;;;;;;;0.00;0.00;;;29.90;27.90;;;;;;5043261;28;20427;-73
2022/06/19 13:20:41;;;;;;;0.00;0.00;;;29.80;27.40;;;;;;5050620;28;20056;-73
2022/06/19 13:23:07;;;;;;;0.00;0.00;;;29.70;28.00;;;;;;5033752;28;20056;-73
2022/06/19 13:25:36;;;;;;;0.00;0.00;;;29.80;27.80;;;;;;5057350;28;20029;-75